KCIU/CIU METAR and TAF weather

Enter ICAO airport designator
Station Type Date Time Source
KCIU METAR 2021/01/16 02:56 UTC NOAA

KCIU 160256Z AUTO 07009KT 7SM UP OVC006 00/M01 A2961 RMK AO2 UPB52SNE52 CIG 005V008 SLP034 P0000 60001 T00001006 58010 FZRANO


Station Type Date Time Source
KCIU Decoded METAR 2021/01/16 02:56 UTC NOAA

Sault Ste Marie, Chippewa County International Airport, MI, United States (KCIU) 46-15N 084-28W
Jan 15, 2021 - 09:56 PM EST / 2021.01.16 0256 UTC
Wind: from the ENE (070 degrees) at 10 MPH (9 KT):0
Visibility: 7 mile(s):0
Sky conditions: overcast
Weather: precipitation
Precipitation last hour: A trace
Temperature: 32.0 F (0.0 C)
Windchill: 23 F (-5 C):1
Dew Point: 30.9 F (-0.6 C)
Relative Humidity: 95%
Pressure (altimeter): 29.61 in. Hg (1002 hPa)
Pressure tendency: 0.03 inches (1.0 hPa) lower than three hours ago
ob: KCIU 160256Z AUTO 07009KT 7SM UP OVC006 00/M01 A2961 RMK AO2 UPB52SNE52 CIG 005V008 SLP034 P0000 60001 T00001006 58010 FZRANO
cycle: 3

Station Type Date Time Source
KCIU TAF UTC NOAA

Error!

Example: see airport list